Itzig, Luxembourg
Current Conditions -  °F | °C
As of 1:20 PM on Thursday 29 Jan 2015 (Local Time) from ELLX Reporting Station
Broken Clouds Broken Clouds  
Wind Chill: 28°   Ceiling: 2800
Heat Index: 36°   Visibility: 6mi
Dew Point: 36°   Wind: 12mph
Humidity: 100%   Direction: 230°SW
Pressure: 29.18"   Gusts: NA
Location:  49.58°N, 6.17°E
Report Text: ELLX 291220Z 23010KT 190V260 9999 SCT010 BKN028 02/02 Q0988 NOSIG
Loading
Personal Weather Stations






























Interactive Weather Map New forecast layout! Learn more

10-Day Weather Forecast

Advertisements
Track Severe Weather on mobile